TAF LERS
AMD LERS 280431Z 2804/2903 30015KT 9999 FEW040 TX12/2813Z TN03/2806Z TEMPO 2804/2806 28020G30KT PROB40 TEMPO 2812/2815 28020G30KT BECMG 2823/2901 VRB03KT TEMPO 2805/2807 18008KT=
METAR LERS
LERS 280800Z 28016G28KT 250V320 9999 FEW030 07/M00 Q1006=
LERS 280730Z 28014KT 240V320 9999 FEW030 07/M00 Q1006=
LERS 280700Z 30014G28KT 260V340 9999 FEW030 07/M00 Q1006=
LERS 280630Z 30007KT 260V340 9999 FEW040 07/M01 Q1006=
LERS 280600Z 22013G23KT 170V280 9999 FEW040 07/M01 Q1005=
WC LERS
WS LERS
WV LERS